sensor_id;sensor_type;location;lat;lon;timestamp;temperature;humidity
15483;DHT22;7843;50.330;7.312;2024-03-08T00:00:10;3.40;97.20
15483;DHT22;7843;50.330;7.312;2024-03-08T00:02:39;3.50;96.90
15483;DHT22;7843;50.330;7.312;2024-03-08T00:05:08;3.50;96.70
15483;DHT22;7843;50.330;7.312;2024-03-08T00:07:36;3.50;96.60
15483;DHT22;7843;50.330;7.312;2024-03-08T00:10:03;3.60;96.80
15483;DHT22;7843;50.330;7.312;2024-03-08T00:12:30;3.60;96.60
15483;DHT22;7843;50.330;7.312;2024-03-08T00:14:57;3.50;96.70
15483;DHT22;7843;50.330;7.312;2024-03-08T00:17:24;3.50;96.70
15483;DHT22;7843;50.330;7.312;2024-03-08T00:19:51;3.50;96.60
15483;DHT22;7843;50.330;7.312;2024-03-08T00:22:18;3.50;96.50
15483;DHT22;7843;50.330;7.312;2024-03-08T00:24:45;3.50;96.50
15483;DHT22;7843;50.330;7.312;2024-03-08T00:27:11;3.50;96.60
15483;DHT22;7843;50.330;7.312;2024-03-08T00:29:38;3.40;96.50
15483;DHT22;7843;50.330;7.312;2024-03-08T00:32:05;3.40;96.50
15483;DHT22;7843;50.330;7.312;2024-03-08T00:34:32;3.40;96.40
15483;DHT22;7843;50.330;7.312;2024-03-08T00:36:59;3.40;96.40
15483;DHT22;7843;50.330;7.312;2024-03-08T00:39:25;3.40;96.50
15483;DHT22;7843;50.330;7.312;2024-03-08T00:41:52;3.30;96.60
15483;DHT22;7843;50.330;7.312;2024-03-08T00:44:19;3.30;96.50
15483;DHT22;7843;50.330;7.312;2024-03-08T00:46:45;3.40;96.50
15483;DHT22;7843;50.330;7.312;2024-03-08T00:49:12;3.40;96.30
15483;DHT22;7843;50.330;7.312;2024-03-08T00:51:39;3.40;96.20
15483;DHT22;7843;50.330;7.312;2024-03-08T00:54:05;3.30;96.30
15483;DHT22;7843;50.330;7.312;2024-03-08T00:56:32;3.20;96.40
15483;DHT22;7843;50.330;7.312;2024-03-08T00:59:00;3.20;96.80
15483;DHT22;7843;50.330;7.312;2024-03-08T01:01:27;3.10;96.70
15483;DHT22;7843;50.330;7.312;2024-03-08T01:03:54;3.10;97.00
15483;DHT22;7843;50.330;7.312;2024-03-08T01:06:20;3.00;97.10
15483;DHT22;7843;50.330;7.312;2024-03-08T01:08:47;2.90;96.90
15483;DHT22;7843;50.330;7.312;2024-03-08T01:11:14;2.80;97.00
15483;DHT22;7843;50.330;7.312;2024-03-08T01:13:41;2.70;97.40
15483;DHT22;7843;50.330;7.312;2024-03-08T01:16:07;2.70;97.60
15483;DHT22;7843;50.330;7.312;2024-03-08T01:18:34;2.60;97.70
15483;DHT22;7843;50.330;7.312;2024-03-08T01:21:01;2.60;97.90
15483;DHT22;7843;50.330;7.312;2024-03-08T01:23:27;2.50;98.10
15483;DHT22;7843;50.330;7.312;2024-03-08T01:25:55;2.40;98.40
15483;DHT22;7843;50.330;7.312;2024-03-08T01:28:26;2.30;98.50
15483;DHT22;7843;50.330;7.312;2024-03-08T01:30:53;2.20;98.50
15483;DHT22;7843;50.330;7.312;2024-03-08T01:33:26;2.10;98.80
15483;DHT22;7843;50.330;7.312;2024-03-08T01:35:53;2.10;99.10
15483;DHT22;7843;50.330;7.312;2024-03-08T01:38:20;2.00;99.10
15483;DHT22;7843;50.330;7.312;2024-03-08T01:40:50;1.90;99.30
15483;DHT22;7843;50.330;7.312;2024-03-08T01:43:28;1.80;99.80
15483;DHT22;7843;50.330;7.312;2024-03-08T01:45:57;1.70;99.90
15483;DHT22;7843;50.330;7.312;2024-03-08T01:48:27;1.70;99.90
15483;DHT22;7843;50.330;7.312;2024-03-08T01:50:56;1.60;99.90
15483;DHT22;7843;50.330;7.312;2024-03-08T01:53:24;1.50;99.90
15483;DHT22;7843;50.330;7.312;2024-03-08T01:55:56;1.40;99.90
15483;DHT22;7843;50.330;7.312;2024-03-08T01:58:26;1.30;99.90
15483;DHT22;7843;50.330;7.312;2024-03-08T02:00:56;1.20;99.90
15483;DHT22;7843;50.330;7.312;2024-03-08T02:03:23;1.20;99.90
15483;DHT22;7843;50.330;7.312;2024-03-08T02:05:50;1.10;99.90
15483;DHT22;7843;50.330;7.312;2024-03-08T02:08:18;1.10;99.90
15483;DHT22;7843;50.330;7.312;2024-03-08T02:10:45;1.10;99.90
15483;DHT22;7843;50.330;7.312;2024-03-08T02:13:12;1.10;99.90
15483;DHT22;7843;50.330;7.312;2024-03-08T02:15:55;1.10;99.90
15483;DHT22;7843;50.330;7.312;2024-03-08T02:18:23;1.00;99.90
15483;DHT22;7843;50.330;7.312;2024-03-08T02:21:00;1.00;99.90
15483;DHT22;7843;50.330;7.312;2024-03-08T02:23:28;1.00;99.90
15483;DHT22;7843;50.330;7.312;2024-03-08T02:25:56;1.00;99.90
15483;DHT22;7843;50.330;7.312;2024-03-08T02:28:24;1.00;99.90
15483;DHT22;7843;50.330;7.312;2024-03-08T02:30:52;0.90;99.90
15483;DHT22;7843;50.330;7.312;2024-03-08T02:33:27;0.90;99.90
15483;DHT22;7843;50.330;7.312;2024-03-08T02:35:54;0.90;99.90
15483;DHT22;7843;50.330;7.312;2024-03-08T02:38:22;0.90;99.90
15483;DHT22;7843;50.330;7.312;2024-03-08T02:40:52;0.90;99.90
15483;DHT22;7843;50.330;7.312;2024-03-08T02:43:20;0.80;99.90
15483;DHT22;7843;50.330;7.312;2024-03-08T02:45:48;0.80;99.90
15483;DHT22;7843;50.330;7.312;2024-03-08T02:48:16;0.80;99.90
15483;DHT22;7843;50.330;7.312;2024-03-08T02:50:43;0.80;99.90
15483;DHT22;7843;50.330;7.312;2024-03-08T02:53:11;0.80;99.90
15483;DHT22;7843;50.330;7.312;2024-03-08T02:55:39;0.70;99.90
15483;DHT22;7843;50.330;7.312;2024-03-08T02:58:07;0.70;99.90
15483;DHT22;7843;50.330;7.312;2024-03-08T03:00:38;0.70;99.90
15483;DHT22;7843;50.330;7.312;2024-03-08T03:03:05;0.70;99.90
15483;DHT22;7843;50.330;7.312;2024-03-08T03:05:35;0.70;99.90
15483;DHT22;7843;50.330;7.312;2024-03-08T03:08:02;0.70;99.90
15483;DHT22;7843;50.330;7.312;2024-03-08T03:10:30;0.70;99.90
15483;DHT22;7843;50.330;7.312;2024-03-08T03:12:57;0.70;99.90
15483;DHT22;7843;50.330;7.312;2024-03-08T03:15:24;0.60;99.90
15483;DHT22;7843;50.330;7.312;2024-03-08T03:17:52;0.60;99.90
15483;DHT22;7843;50.330;7.312;2024-03-08T03:20:19;0.50;99.90
15483;DHT22;7843;50.330;7.312;2024-03-08T03:23:06;0.50;99.90
15483;DHT22;7843;50.330;7.312;2024-03-08T03:25:35;0.50;99.90
15483;DHT22;7843;50.330;7.312;2024-03-08T03:28:03;0.40;99.90
15483;DHT22;7843;50.330;7.312;2024-03-08T03:30:30;0.40;99.90
15483;DHT22;7843;50.330;7.312;2024-03-08T03:33:00;0.40;99.90
15483;DHT22;7843;50.330;7.312;2024-03-08T03:35:28;0.40;99.90
15483;DHT22;7843;50.330;7.312;2024-03-08T03:37:55;0.30;99.90
15483;DHT22;7843;50.330;7.312;2024-03-08T03:40:35;0.30;99.90
15483;DHT22;7843;50.330;7.312;2024-03-08T03:43:02;0.30;99.90
15483;DHT22;7843;50.330;7.312;2024-03-08T03:45:30;0.30;99.90
15483;DHT22;7843;50.330;7.312;2024-03-08T03:48:05;0.30;99.90
15483;DHT22;7843;50.330;7.312;2024-03-08T03:50:36;0.30;99.90
15483;DHT22;7843;50.330;7.312;2024-03-08T03:53:03;0.20;99.90
15483;DHT22;7843;50.330;7.312;2024-03-08T03:55:30;0.20;99.90
15483;DHT22;7843;50.330;7.312;2024-03-08T03:57:57;0.10;99.90
15483;DHT22;7843;50.330;7.312;2024-03-08T04:00:25;0.10;99.90
15483;DHT22;7843;50.330;7.312;2024-03-08T04:02:53;0.10;99.90
15483;DHT22;7843;50.330;7.312;2024-03-08T04:05:20;0.00;99.90
15483;DHT22;7843;50.330;7.312;2024-03-08T04:07:46;0.00;99.90
15483;DHT22;7843;50.330;7.312;2024-03-08T04:10:13;0.00;99.90
15483;DHT22;7843;50.330;7.312;2024-03-08T04:12:41;-0.10;99.90
15483;DHT22;7843;50.330;7.312;2024-03-08T04:15:10;-0.10;99.90
15483;DHT22;7843;50.330;7.312;2024-03-08T04:17:37;-0.10;99.90
15483;DHT22;7843;50.330;7.312;2024-03-08T04:20:04;-0.10;99.90
15483;DHT22;7843;50.330;7.312;2024-03-08T04:22:38;-0.10;99.90
15483;DHT22;7843;50.330;7.312;2024-03-08T04:25:06;-0.10;99.90
15483;DHT22;7843;50.330;7.312;2024-03-08T04:27:33;-0.10;99.90
15483;DHT22;7843;50.330;7.312;2024-03-08T04:30:01;-0.10;99.90
15483;DHT22;7843;50.330;7.312;2024-03-08T04:32:28;-0.10;99.90
15483;DHT22;7843;50.330;7.312;2024-03-08T04:34:56;-0.10;99.90
15483;DHT22;7843;50.330;7.312;2024-03-08T04:37:23;-0.10;99.90
15483;DHT22;7843;50.330;7.312;2024-03-08T04:39:50;-0.10;99.90
15483;DHT22;7843;50.330;7.312;2024-03-08T04:42:17;-0.10;99.90
15483;DHT22;7843;50.330;7.312;2024-03-08T04:44:44;-0.10;99.90
15483;DHT22;7843;50.330;7.312;2024-03-08T04:47:11;-0.10;99.90
15483;DHT22;7843;50.330;7.312;2024-03-08T04:49:38;-0.20;99.90
15483;DHT22;7843;50.330;7.312;2024-03-08T04:52:05;-0.20;99.90
15483;DHT22;7843;50.330;7.312;2024-03-08T04:54:31;-0.20;99.90
15483;DHT22;7843;50.330;7.312;2024-03-08T04:56:58;-0.30;99.90
15483;DHT22;7843;50.330;7.312;2024-03-08T04:59:29;-0.30;99.90
15483;DHT22;7843;50.330;7.312;2024-03-08T05:01:56;-0.30;99.90
15483;DHT22;7843;50.330;7.312;2024-03-08T05:04:22;-0.30;99.90
15483;DHT22;7843;50.330;7.312;2024-03-08T05:06:49;-0.30;99.90
15483;DHT22;7843;50.330;7.312;2024-03-08T05:09:16;-0.30;99.90
15483;DHT22;7843;50.330;7.312;2024-03-08T05:11:45;-0.30;99.90
15483;DHT22;7843;50.330;7.312;2024-03-08T05:14:12;-0.30;99.90
15483;DHT22;7843;50.330;7.312;2024-03-08T05:16:44;-0.30;99.90
15483;DHT22;7843;50.330;7.312;2024-03-08T05:19:18;-0.30;99.90
15483;DHT22;7843;50.330;7.312;2024-03-08T05:21:49;-0.40;99.90
15483;DHT22;7843;50.330;7.312;2024-03-08T05:24:17;-0.30;99.90
15483;DHT22;7843;50.330;7.312;2024-03-08T05:26:45;-0.30;99.90
15483;DHT22;7843;50.330;7.312;2024-03-08T05:29:12;-0.30;99.90
15483;DHT22;7843;50.330;7.312;2024-03-08T05:31:47;-0.30;99.90
15483;DHT22;7843;50.330;7.312;2024-03-08T05:34:15;-0.30;99.90
15483;DHT22;7843;50.330;7.312;2024-03-08T05:36:42;-0.30;99.90
15483;DHT22;7843;50.330;7.312;2024-03-08T05:39:13;-0.30;99.90
15483;DHT22;7843;50.330;7.312;2024-03-08T05:41:41;-0.30;99.90
15483;DHT22;7843;50.330;7.312;2024-03-08T05:44:08;-0.40;99.90
15483;DHT22;7843;50.330;7.312;2024-03-08T05:46:36;-0.40;99.90
15483;DHT22;7843;50.330;7.312;2024-03-08T05:49:03;-0.40;99.90
15483;DHT22;7843;50.330;7.312;2024-03-08T05:51:33;-0.40;99.90
15483;DHT22;7843;50.330;7.312;2024-03-08T05:54:01;-0.40;99.90
15483;DHT22;7843;50.330;7.312;2024-03-08T05:56:30;-0.50;99.90
15483;DHT22;7843;50.330;7.312;2024-03-08T05:58:57;-0.50;99.90
15483;DHT22;7843;50.330;7.312;2024-03-08T06:01:25;-0.50;99.90
15483;DHT22;7843;50.330;7.312;2024-03-08T06:03:53;-0.50;99.90
15483;DHT22;7843;50.330;7.312;2024-03-08T06:06:25;-0.50;99.90
15483;DHT22;7843;50.330;7.312;2024-03-08T06:08:52;-0.50;99.90
15483;DHT22;7843;50.330;7.312;2024-03-08T06:11:19;-0.50;99.90
15483;DHT22;7843;50.330;7.312;2024-03-08T06:13:49;-0.50;99.90
15483;DHT22;7843;50.330;7.312;2024-03-08T06:16:16;-0.50;99.90
15483;DHT22;7843;50.330;7.312;2024-03-08T06:18:43;-0.50;99.90
15483;DHT22;7843;50.330;7.312;2024-03-08T06:21:09;-0.40;99.90
15483;DHT22;7843;50.330;7.312;2024-03-08T06:23:38;-0.40;99.90
15483;DHT22;7843;50.330;7.312;2024-03-08T06:26:05;-0.40;99.90
15483;DHT22;7843;50.330;7.312;2024-03-08T06:28:32;-0.30;99.90
15483;DHT22;7843;50.330;7.312;2024-03-08T06:30:59;-0.30;99.90
15483;DHT22;7843;50.330;7.312;2024-03-08T06:33:26;-0.30;99.90
15483;DHT22;7843;50.330;7.312;2024-03-08T06:35:54;-0.20;99.90
15483;DHT22;7843;50.330;7.312;2024-03-08T06:38:24;-0.20;99.90
15483;DHT22;7843;50.330;7.312;2024-03-08T06:40:52;-0.20;99.90
15483;DHT22;7843;50.330;7.312;2024-03-08T06:43:19;-0.20;99.90
15483;DHT22;7843;50.330;7.312;2024-03-08T06:45:46;-0.10;99.90
15483;DHT22;7843;50.330;7.312;2024-03-08T06:48:18;-0.10;99.90
15483;DHT22;7843;50.330;7.312;2024-03-08T06:50:46;0.00;99.90
15483;DHT22;7843;50.330;7.312;2024-03-08T06:53:13;0.10;99.90
15483;DHT22;7843;50.330;7.312;2024-03-08T06:55:40;0.20;99.90
15483;DHT22;7843;50.330;7.312;2024-03-08T06:58:07;0.30;99.90
15483;DHT22;7843;50.330;7.312;2024-03-08T07:00:34;0.40;99.90
15483;DHT22;7843;50.330;7.312;2024-03-08T07:03:00;0.40;99.90
15483;DHT22;7843;50.330;7.312;2024-03-08T07:05:28;0.50;99.90
15483;DHT22;7843;50.330;7.312;2024-03-08T07:07:56;0.60;99.90
15483;DHT22;7843;50.330;7.312;2024-03-08T07:10:23;0.60;99.90
15483;DHT22;7843;50.330;7.312;2024-03-08T07:12:52;0.70;99.90
15483;DHT22;7843;50.330;7.312;2024-03-08T07:15:22;0.70;99.90
15483;DHT22;7843;50.330;7.312;2024-03-08T07:17:49;0.80;99.90
15483;DHT22;7843;50.330;7.312;2024-03-08T07:20:19;0.90;99.90
15483;DHT22;7843;50.330;7.312;2024-03-08T07:22:46;1.00;99.90
15483;DHT22;7843;50.330;7.312;2024-03-08T07:25:14;1.10;99.90
15483;DHT22;7843;50.330;7.312;2024-03-08T07:27:49;1.20;99.90
15483;DHT22;7843;50.330;7.312;2024-03-08T07:30:16;1.20;99.90
15483;DHT22;7843;50.330;7.312;2024-03-08T07:33:03;1.30;99.90
15483;DHT22;7843;50.330;7.312;2024-03-08T07:35:30;1.40;99.90
15483;DHT22;7843;50.330;7.312;2024-03-08T07:37:57;1.40;99.90
15483;DHT22;7843;50.330;7.312;2024-03-08T07:40:26;1.50;99.90
15483;DHT22;7843;50.330;7.312;2024-03-08T07:42:53;1.60;99.90
15483;DHT22;7843;50.330;7.312;2024-03-08T07:45:20;1.70;99.90
15483;DHT22;7843;50.330;7.312;2024-03-08T07:47:48;1.70;99.90
15483;DHT22;7843;50.330;7.312;2024-03-08T07:50:15;1.80;99.90
15483;DHT22;7843;50.330;7.312;2024-03-08T07:52:42;1.90;99.90
15483;DHT22;7843;50.330;7.312;2024-03-08T07:55:09;2.00;99.90
15483;DHT22;7843;50.330;7.312;2024-03-08T07:57:37;2.00;99.90
15483;DHT22;7843;50.330;7.312;2024-03-08T08:00:07;2.00;99.90
15483;DHT22;7843;50.330;7.312;2024-03-08T08:02:35;2.10;99.90
15483;DHT22;7843;50.330;7.312;2024-03-08T08:05:03;2.10;99.90
15483;DHT22;7843;50.330;7.312;2024-03-08T08:07:30;2.20;99.90
15483;DHT22;7843;50.330;7.312;2024-03-08T08:09:57;2.20;99.90
15483;DHT22;7843;50.330;7.312;2024-03-08T08:12:24;2.30;99.90
15483;DHT22;7843;50.330;7.312;2024-03-08T08:14:50;2.30;99.90
15483;DHT22;7843;50.330;7.312;2024-03-08T08:17:17;2.40;99.90
15483;DHT22;7843;50.330;7.312;2024-03-08T08:19:44;2.40;99.90
15483;DHT22;7843;50.330;7.312;2024-03-08T08:22:10;2.50;99.90
15483;DHT22;7843;50.330;7.312;2024-03-08T08:24:38;2.60;99.90
15483;DHT22;7843;50.330;7.312;2024-03-08T08:27:04;2.60;99.90
15483;DHT22;7843;50.330;7.312;2024-03-08T08:29:31;2.70;99.90
15483;DHT22;7843;50.330;7.312;2024-03-08T08:31:59;2.70;99.90
15483;DHT22;7843;50.330;7.312;2024-03-08T08:34:27;2.80;99.90
15483;DHT22;7843;50.330;7.312;2024-03-08T08:36:53;2.90;99.90
15483;DHT22;7843;50.330;7.312;2024-03-08T08:39:21;3.00;99.90
15483;DHT22;7843;50.330;7.312;2024-03-08T08:41:49;3.10;99.90
15483;DHT22;7843;50.330;7.312;2024-03-08T08:44:15;3.20;99.90
15483;DHT22;7843;50.330;7.312;2024-03-08T08:46:43;3.40;99.90
15483;DHT22;7843;50.330;7.312;2024-03-08T08:49:09;3.40;99.90
15483;DHT22;7843;50.330;7.312;2024-03-08T08:51:41;3.50;99.80
15483;DHT22;7843;50.330;7.312;2024-03-08T08:54:07;3.80;99.00
15483;DHT22;7843;50.330;7.312;2024-03-08T08:56:36;4.00;97.80
15483;DHT22;7843;50.330;7.312;2024-03-08T08:59:03;4.20;97.60
15483;DHT22;7843;50.330;7.312;2024-03-08T09:01:31;4.30;97.00
15483;DHT22;7843;50.330;7.312;2024-03-08T09:03:58;4.40;96.20
15483;DHT22;7843;50.330;7.312;2024-03-08T09:06:24;4.60;96.60
15483;DHT22;7843;50.330;7.312;2024-03-08T09:08:52;4.70;95.70
15483;DHT22;7843;50.330;7.312;2024-03-08T09:11:19;4.80;95.20
15483;DHT22;7843;50.330;7.312;2024-03-08T09:13:46;4.80;94.50
15483;DHT22;7843;50.330;7.312;2024-03-08T09:16:13;4.80;94.60
15483;DHT22;7843;50.330;7.312;2024-03-08T09:18:40;5.00;94.80
15483;DHT22;7843;50.330;7.312;2024-03-08T09:21:11;5.00;94.00
15483;DHT22;7843;50.330;7.312;2024-03-08T09:23:39;5.00;94.10
15483;DHT22;7843;50.330;7.312;2024-03-08T09:26:07;5.20;94.50
15483;DHT22;7843;50.330;7.312;2024-03-08T09:28:36;5.30;94.10
15483;DHT22;7843;50.330;7.312;2024-03-08T09:31:03;5.40;93.30
15483;DHT22;7843;50.330;7.312;2024-03-08T09:33:29;5.50;92.90
15483;DHT22;7843;50.330;7.312;2024-03-08T09:35:56;5.70;92.80
15483;DHT22;7843;50.330;7.312;2024-03-08T09:38:27;5.80;91.80
15483;DHT22;7843;50.330;7.312;2024-03-08T09:40:54;6.00;91.10
15483;DHT22;7843;50.330;7.312;2024-03-08T09:43:23;6.10;91.40
15483;DHT22;7843;50.330;7.312;2024-03-08T09:45:51;6.10;90.30
15483;DHT22;7843;50.330;7.312;2024-03-08T09:48:18;6.20;90.60
15483;DHT22;7843;50.330;7.312;2024-03-08T09:50:48;6.30;90.30
15483;DHT22;7843;50.330;7.312;2024-03-08T09:53:15;6.60;89.00
15483;DHT22;7843;50.330;7.312;2024-03-08T09:55:43;6.70;88.20
15483;DHT22;7843;50.330;7.312;2024-03-08T09:58:12;6.70;88.20
15483;DHT22;7843;50.330;7.312;2024-03-08T10:00:54;7.00;87.70
15483;DHT22;7843;50.330;7.312;2024-03-08T10:03:24;7.20;86.00
15483;DHT22;7843;50.330;7.312;2024-03-08T10:05:53;7.30;85.80
15483;DHT22;7843;50.330;7.312;2024-03-08T10:08:23;7.40;85.10
15483;DHT22;7843;50.330;7.312;2024-03-08T10:10:51;7.40;85.00
15483;DHT22;7843;50.330;7.312;2024-03-08T10:13:17;7.50;85.00
15483;DHT22;7843;50.330;7.312;2024-03-08T10:15:46;7.60;84.60
15483;DHT22;7843;50.330;7.312;2024-03-08T10:18:13;7.70;83.90
15483;DHT22;7843;50.330;7.312;2024-03-08T10:20:39;7.80;83.40
15483;DHT22;7843;50.330;7.312;2024-03-08T10:23:06;7.80;83.40
15483;DHT22;7843;50.330;7.312;2024-03-08T10:25:35;7.90;82.50
15483;DHT22;7843;50.330;7.312;2024-03-08T10:28:03;8.00;83.10
15483;DHT22;7843;50.330;7.312;2024-03-08T10:30:33;8.10;82.80
15483;DHT22;7843;50.330;7.312;2024-03-08T10:33:00;8.20;82.10
15483;DHT22;7843;50.330;7.312;2024-03-08T10:35:27;8.20;82.20
15483;DHT22;7843;50.330;7.312;2024-03-08T10:37:57;8.30;82.00
15483;DHT22;7843;50.330;7.312;2024-03-08T10:40:29;8.40;82.60
15483;DHT22;7843;50.330;7.312;2024-03-08T10:42:58;8.60;81.80
15483;DHT22;7843;50.330;7.312;2024-03-08T10:48:03;8.70;81.10
15483;DHT22;7843;50.330;7.312;2024-03-08T10:50:33;8.80;81.10
15483;DHT22;7843;50.330;7.312;2024-03-08T10:53:01;9.00;80.90
15483;DHT22;7843;50.330;7.312;2024-03-08T10:55:30;9.10;79.50
15483;DHT22;7843;50.330;7.312;2024-03-08T10:57:59;9.10;79.00
15483;DHT22;7843;50.330;7.312;2024-03-08T11:00:27;9.20;78.80
15483;DHT22;7843;50.330;7.312;2024-03-08T11:02:54;9.30;78.90
15483;DHT22;7843;50.330;7.312;2024-03-08T11:05:40;9.40;77.80
15483;DHT22;7843;50.330;7.312;2024-03-08T11:08:20;9.40;77.50
15483;DHT22;7843;50.330;7.312;2024-03-08T11:10:54;9.50;77.50
15483;DHT22;7843;50.330;7.312;2024-03-08T11:13:42;9.60;77.30
15483;DHT22;7843;50.330;7.312;2024-03-08T11:18:59;9.80;77.70
15483;DHT22;7843;50.330;7.312;2024-03-08T11:21:31;9.80;76.50
15483;DHT22;7843;50.330;7.312;2024-03-08T11:24:07;9.80;75.90
15483;DHT22;7843;50.330;7.312;2024-03-08T11:26:34;9.90;77.30
15483;DHT22;7843;50.330;7.312;2024-03-08T11:32:15;10.20;76.80
15483;DHT22;7843;50.330;7.312;2024-03-08T11:34:48;10.40;75.60
15483;DHT22;7843;50.330;7.312;2024-03-08T11:37:18;10.40;75.10
15483;DHT22;7843;50.330;7.312;2024-03-08T11:39:52;10.50;74.70
15483;DHT22;7843;50.330;7.312;2024-03-08T11:42:20;10.60;74.80
15483;DHT22;7843;50.330;7.312;2024-03-08T11:44:47;10.60;73.90
15483;DHT22;7843;50.330;7.312;2024-03-08T11:47:15;10.60;73.80
15483;DHT22;7843;50.330;7.312;2024-03-08T11:49:43;10.70;74.00
15483;DHT22;7843;50.330;7.312;2024-03-08T11:52:11;10.70;73.50
15483;DHT22;7843;50.330;7.312;2024-03-08T11:54:43;10.80;72.90
15483;DHT22;7843;50.330;7.312;2024-03-08T11:57:10;10.70;72.70
15483;DHT22;7843;50.330;7.312;2024-03-08T11:59:37;10.80;73.30
15483;DHT22;7843;50.330;7.312;2024-03-08T12:02:05;10.90;72.10
15483;DHT22;7843;50.330;7.312;2024-03-08T12:04:33;10.80;72.50
15483;DHT22;7843;50.330;7.312;2024-03-08T12:07:00;10.80;73.20
15483;DHT22;7843;50.330;7.312;2024-03-08T12:09:38;11.00;73.30
15483;DHT22;7843;50.330;7.312;2024-03-08T12:12:07;11.10;73.40
15483;DHT22;7843;50.330;7.312;2024-03-08T12:14:34;11.30;73.20
15483;DHT22;7843;50.330;7.312;2024-03-08T12:17:01;11.20;71.80
15483;DHT22;7843;50.330;7.312;2024-03-08T12:19:28;11.20;72.70
15483;DHT22;7843;50.330;7.312;2024-03-08T12:21:55;11.40;72.90
15483;DHT22;7843;50.330;7.312;2024-03-08T12:24:22;11.50;72.10
15483;DHT22;7843;50.330;7.312;2024-03-08T12:26:49;11.50;72.30
15483;DHT22;7843;50.330;7.312;2024-03-08T12:29:21;11.70;71.60
15483;DHT22;7843;50.330;7.312;2024-03-08T12:31:52;11.80;71.40
15483;DHT22;7843;50.330;7.312;2024-03-08T12:34:20;11.70;71.50
15483;DHT22;7843;50.330;7.312;2024-03-08T12:36:48;11.90;71.10
15483;DHT22;7843;50.330;7.312;2024-03-08T12:39:18;12.00;70.80
15483;DHT22;7843;50.330;7.312;2024-03-08T12:41:49;12.20;70.80
15483;DHT22;7843;50.330;7.312;2024-03-08T12:44:18;12.20;70.40
15483;DHT22;7843;50.330;7.312;2024-03-08T12:46:48;12.40;70.70
15483;DHT22;7843;50.330;7.312;2024-03-08T12:49:16;12.50;69.60
15483;DHT22;7843;50.330;7.312;2024-03-08T12:51:49;12.80;69.60
15483;DHT22;7843;50.330;7.312;2024-03-08T12:54:15;13.70;67.50
15483;DHT22;7843;50.330;7.312;2024-03-08T12:56:42;15.00;65.90
15483;DHT22;7843;50.330;7.312;2024-03-08T12:59:09;16.20;62.60
15483;DHT22;7843;50.330;7.312;2024-03-08T13:01:36;16.80;60.90
15483;DHT22;7843;50.330;7.312;2024-03-08T13:04:06;17.70;60.20
15483;DHT22;7843;50.330;7.312;2024-03-08T13:06:35;18.60;58.60
15483;DHT22;7843;50.330;7.312;2024-03-08T13:09:01;19.60;56.10
15483;DHT22;7843;50.330;7.312;2024-03-08T13:11:32;20.00;55.40
15483;DHT22;7843;50.330;7.312;2024-03-08T13:14:04;20.50;54.50
15483;DHT22;7843;50.330;7.312;2024-03-08T13:16:34;21.20;52.60
15483;DHT22;7843;50.330;7.312;2024-03-08T13:19:01;21.10;52.70
15483;DHT22;7843;50.330;7.312;2024-03-08T13:21:28;21.00;52.90
15483;DHT22;7843;50.330;7.312;2024-03-08T13:23:56;20.90;52.50
15483;DHT22;7843;50.330;7.312;2024-03-08T13:26:25;20.80;52.70
15483;DHT22;7843;50.330;7.312;2024-03-08T13:28:56;21.30;52.00
15483;DHT22;7843;50.330;7.312;2024-03-08T13:31:25;21.60;52.60
15483;DHT22;7843;50.330;7.312;2024-03-08T13:33:51;21.90;50.90
15483;DHT22;7843;50.330;7.312;2024-03-08T13:36:24;22.20;51.30
15483;DHT22;7843;50.330;7.312;2024-03-08T13:38:55;22.30;50.10
15483;DHT22;7843;50.330;7.312;2024-03-08T13:41:25;22.00;51.00
15483;DHT22;7843;50.330;7.312;2024-03-08T13:43:52;21.60;50.80
15483;DHT22;7843;50.330;7.312;2024-03-08T13:46:19;21.50;51.30
15483;DHT22;7843;50.330;7.312;2024-03-08T13:48:46;21.10;51.20
15483;DHT22;7843;50.330;7.312;2024-03-08T13:51:14;21.30;51.60
15483;DHT22;7843;50.330;7.312;2024-03-08T13:53:42;21.90;51.90
15483;DHT22;7843;50.330;7.312;2024-03-08T13:56:09;22.10;49.90
15483;DHT22;7843;50.330;7.312;2024-03-08T13:58:38;21.70;50.40
15483;DHT22;7843;50.330;7.312;2024-03-08T14:01:07;21.60;50.10
15483;DHT22;7843;50.330;7.312;2024-03-08T14:03:38;21.10;51.20
15483;DHT22;7843;50.330;7.312;2024-03-08T14:06:08;20.80;51.60
15483;DHT22;7843;50.330;7.312;2024-03-08T14:08:36;20.80;51.20
15483;DHT22;7843;50.330;7.312;2024-03-08T14:11:04;20.90;51.10
15483;DHT22;7843;50.330;7.312;2024-03-08T14:13:43;21.20;51.50
15483;DHT22;7843;50.330;7.312;2024-03-08T14:16:13;21.30;50.70
15483;DHT22;7843;50.330;7.312;2024-03-08T14:18:41;21.40;51.30
15483;DHT22;7843;50.330;7.312;2024-03-08T14:21:08;20.70;51.40
15483;DHT22;7843;50.330;7.312;2024-03-08T14:23:35;20.00;52.10
15483;DHT22;7843;50.330;7.312;2024-03-08T14:26:03;19.90;52.50
15483;DHT22;7843;50.330;7.312;2024-03-08T14:28:31;19.60;53.10
15483;DHT22;7843;50.330;7.312;2024-03-08T14:30:58;19.20;53.40
15483;DHT22;7843;50.330;7.312;2024-03-08T14:33:31;19.30;53.40
15483;DHT22;7843;50.330;7.312;2024-03-08T14:35:58;19.50;53.00
15483;DHT22;7843;50.330;7.312;2024-03-08T14:38:25;19.50;53.20
15483;DHT22;7843;50.330;7.312;2024-03-08T14:40:53;19.50;53.40
15483;DHT22;7843;50.330;7.312;2024-03-08T14:43:21;19.00;53.60
15483;DHT22;7843;50.330;7.312;2024-03-08T14:45:49;19.00;54.00
15483;DHT22;7843;50.330;7.312;2024-03-08T14:48:15;18.80;54.20
15483;DHT22;7843;50.330;7.312;2024-03-08T14:50:42;18.90;54.00
15483;DHT22;7843;50.330;7.312;2024-03-08T14:53:10;18.50;54.70
15483;DHT22;7843;50.330;7.312;2024-03-08T14:55:37;18.70;54.90
15483;DHT22;7843;50.330;7.312;2024-03-08T14:58:04;18.90;54.90
15483;DHT22;7843;50.330;7.312;2024-03-08T15:00:31;18.60;54.80
15483;DHT22;7843;50.330;7.312;2024-03-08T15:03:01;18.00;55.80
15483;DHT22;7843;50.330;7.312;2024-03-08T15:05:34;18.10;55.70
15483;DHT22;7843;50.330;7.312;2024-03-08T15:08:04;18.00;56.00
15483;DHT22;7843;50.330;7.312;2024-03-08T15:10:36;17.70;56.60
15483;DHT22;7843;50.330;7.312;2024-03-08T15:13:03;17.30;56.70
15483;DHT22;7843;50.330;7.312;2024-03-08T15:15:40;16.90;56.90
15483;DHT22;7843;50.330;7.312;2024-03-08T15:18:09;16.40;58.20
15483;DHT22;7843;50.330;7.312;2024-03-08T15:20:38;16.20;59.30
15483;DHT22;7843;50.330;7.312;2024-03-08T15:23:04;16.10;59.60
15483;DHT22;7843;50.330;7.312;2024-03-08T15:25:32;16.00;59.90
15483;DHT22;7843;50.330;7.312;2024-03-08T15:28:01;15.40;60.50
15483;DHT22;7843;50.330;7.312;2024-03-08T15:30:30;14.90;61.60
15483;DHT22;7843;50.330;7.312;2024-03-08T15:32:59;14.50;63.00
15483;DHT22;7843;50.330;7.312;2024-03-08T15:35:29;13.90;63.90
15483;DHT22;7843;50.330;7.312;2024-03-08T15:37:58;13.60;64.50
15483;DHT22;7843;50.330;7.312;2024-03-08T15:40:26;13.10;65.70
15483;DHT22;7843;50.330;7.312;2024-03-08T15:42:54;12.70;67.10
15483;DHT22;7843;50.330;7.312;2024-03-08T15:45:22;12.30;68.40
15483;DHT22;7843;50.330;7.312;2024-03-08T15:47:56;12.10;68.40
15483;DHT22;7843;50.330;7.312;2024-03-08T15:50:22;11.90;69.60
15483;DHT22;7843;50.330;7.312;2024-03-08T15:52:52;11.90;70.10
15483;DHT22;7843;50.330;7.312;2024-03-08T15:55:20;11.70;70.20
15483;DHT22;7843;50.330;7.312;2024-03-08T15:57:51;11.50;70.50
15483;DHT22;7843;50.330;7.312;2024-03-08T16:00:22;11.30;70.90
15483;DHT22;7843;50.330;7.312;2024-03-08T16:03:19;11.10;71.40
15483;DHT22;7843;50.330;7.312;2024-03-08T16:05:47;11.00;72.60
15483;DHT22;7843;50.330;7.312;2024-03-08T16:08:16;11.00;72.80
15483;DHT22;7843;50.330;7.312;2024-03-08T16:10:45;11.00;72.40